createdAt,value
2022-07-25T00:00:50.733Z,24.99
2022-07-25T00:03:21.085Z,24.96
2022-07-25T00:05:50.872Z,24.99
2022-07-25T00:08:20.637Z,25.03
2022-07-25T00:10:50.487Z,24.93
2022-07-25T00:13:20.252Z,24.90
2022-07-25T00:15:50.134Z,24.79
2022-07-25T00:18:19.897Z,24.93
2022-07-25T00:20:49.839Z,24.80
2022-07-25T00:23:19.607Z,24.84
2022-07-25T00:25:49.694Z,24.68
2022-07-25T00:28:19.476Z,24.70
2022-07-25T00:30:49.926Z,24.74
2022-07-25T00:33:19.727Z,24.71
2022-07-25T00:35:49.495Z,24.68
2022-07-25T00:38:19.281Z,24.66
2022-07-25T00:40:54.589Z,24.74
2022-07-25T00:43:20.591Z,24.84
2022-07-25T00:45:50.371Z,24.72
2022-07-25T00:48:20.052Z,24.50
2022-07-25T00:50:50.145Z,24.50
2022-07-25T00:53:20.080Z,24.43
2022-07-25T00:55:49.988Z,24.45
2022-07-25T00:58:19.773Z,24.52
2022-07-25T01:00:49.818Z,24.51
2022-07-25T01:03:19.775Z,24.29
2022-07-25T01:05:53.717Z,24.33
2022-07-25T01:08:23.063Z,24.20
2022-07-25T01:10:52.908Z,24.11
2022-07-25T01:13:22.753Z,24.26
2022-07-25T01:15:52.640Z,24.18
2022-07-25T01:18:22.480Z,24.03
2022-07-25T01:20:52.270Z,24.00
2022-07-25T01:23:22.063Z,23.92
2022-07-25T01:25:51.566Z,24.00
2022-07-25T01:28:21.477Z,24.00
2022-07-25T01:30:51.636Z,24.10
2022-07-25T01:33:22.801Z,24.13
2022-07-25T01:35:52.822Z,23.89
2022-07-25T01:38:22.602Z,23.70
2022-07-25T01:40:52.661Z,23.77
2022-07-25T01:43:22.138Z,23.81
2022-07-25T01:45:52.034Z,23.85
2022-07-25T01:48:21.572Z,23.76
2022-07-25T01:50:51.379Z,23.71
2022-07-25T01:53:22.122Z,23.65
2022-07-25T01:55:53.365Z,23.76
2022-07-25T01:58:24.268Z,23.78
2022-07-25T02:00:55.190Z,23.71
2022-07-25T02:03:31.035Z,23.85
2022-07-25T02:06:03.728Z,23.85
2022-07-25T02:10:54.383Z,23.71
2022-07-25T02:13:25.046Z,23.62
2022-07-25T02:15:55.004Z,23.65
2022-07-25T02:18:24.777Z,23.60
2022-07-25T02:20:54.657Z,23.56
2022-07-25T02:23:24.731Z,23.48
2022-07-25T02:25:54.959Z,23.50
2022-07-25T02:28:24.812Z,23.47
2022-07-25T02:30:54.433Z,23.46
2022-07-25T02:33:24.490Z,23.36
2022-07-25T02:35:54.275Z,23.38
2022-07-25T02:38:24.056Z,23.41
2022-07-25T02:40:54.170Z,23.40
2022-07-25T02:43:23.735Z,23.48
2022-07-25T02:45:53.646Z,23.43
2022-07-25T02:48:23.425Z,23.40
2022-07-25T02:50:53.291Z,23.26
2022-07-25T02:53:40.354Z,23.36
2022-07-25T02:55:55.072Z,23.36
2022-07-25T02:58:26.522Z,23.12
2022-07-25T03:00:56.379Z,23.13
2022-07-25T03:03:26.170Z,23.04
2022-07-25T03:05:56.634Z,23.03
2022-07-25T03:08:26.987Z,23.03
2022-07-25T03:10:57.073Z,23.09
2022-07-25T03:13:26.856Z,23.13
2022-07-25T03:15:56.949Z,23.13
2022-07-25T03:18:26.828Z,22.96
2022-07-25T03:20:56.595Z,22.82
2022-07-25T03:23:28.127Z,22.82
2022-07-25T03:25:58.133Z,22.98
2022-07-25T03:28:27.927Z,22.94
2022-07-25T03:30:58.053Z,22.95
2022-07-25T03:33:28.140Z,23.00
2022-07-25T03:35:57.927Z,22.92
2022-07-25T03:38:27.413Z,22.92
2022-07-25T03:40:57.191Z,22.93
2022-07-25T03:43:26.983Z,22.69
2022-07-25T03:45:56.938Z,22.69
2022-07-25T03:48:26.591Z,23.01
2022-07-25T03:50:58.876Z,22.96
2022-07-25T03:53:29.420Z,22.95
2022-07-25T03:55:59.277Z,22.89
2022-07-25T03:58:29.052Z,22.80
2022-07-25T04:00:58.872Z,22.89
2022-07-25T04:03:28.450Z,22.80
2022-07-25T04:05:58.241Z,22.99
2022-07-25T04:08:28.032Z,23.07
2022-07-25T04:10:59.525Z,23.06
2022-07-25T04:13:29.771Z,23.07
2022-07-25T04:15:59.566Z,23.11
2022-07-25T04:18:29.527Z,22.98
2022-07-25T04:21:01.438Z,23.06
2022-07-25T04:23:31.698Z,23.21
2022-07-25T04:26:01.942Z,23.25
2022-07-25T04:28:32.502Z,23.26
2022-07-25T04:31:02.281Z,23.19
2022-07-25T04:33:32.368Z,23.29
2022-07-25T04:36:02.149Z,23.44
2022-07-25T04:38:32.083Z,23.33
2022-07-25T04:41:04.494Z,23.39
2022-07-25T04:43:34.290Z,23.45
2022-07-25T04:46:06.624Z,23.50
2022-07-25T04:48:36.635Z,23.52
2022-07-25T04:51:07.540Z,23.54
2022-07-25T04:53:37.428Z,23.61
2022-07-25T04:56:08.489Z,23.56
2022-07-25T04:58:38.533Z,23.66
2022-07-25T05:01:08.424Z,23.77
2022-07-25T05:03:38.186Z,23.68
2022-07-25T05:06:08.359Z,23.86
2022-07-25T05:08:38.138Z,24.05
2022-07-25T05:11:07.997Z,23.95
2022-07-25T05:13:37.776Z,23.87
2022-07-25T05:16:09.452Z,23.97
2022-07-25T05:18:38.988Z,23.82
2022-07-25T05:21:14.454Z,23.82
2022-07-25T05:23:44.237Z,24.00
2022-07-25T05:26:14.805Z,24.21
2022-07-25T05:28:44.619Z,24.03
2022-07-25T05:31:14.590Z,24.16
2022-07-25T05:33:44.653Z,24.25
2022-07-25T05:36:14.850Z,24.37
2022-07-25T05:38:44.630Z,24.36
2022-07-25T05:41:14.423Z,24.24
2022-07-25T05:43:46.085Z,24.36
2022-07-25T05:46:16.602Z,24.68
2022-07-25T05:48:47.354Z,24.79
2022-07-25T05:51:17.167Z,24.79
2022-07-25T05:53:47.228Z,24.70
2022-07-25T05:56:16.714Z,24.88
2022-07-25T05:58:46.554Z,25.09
2022-07-25T06:01:18.229Z,25.09
2022-07-25T06:03:48.014Z,24.86
2022-07-25T06:06:17.554Z,24.76
2022-07-25T06:08:47.329Z,24.80
2022-07-25T06:11:17.571Z,24.72
2022-07-25T06:13:47.720Z,24.70
2022-07-25T06:16:17.655Z,25.13
2022-07-25T06:18:47.505Z,24.86
2022-07-25T06:21:17.836Z,24.86
2022-07-25T06:23:47.615Z,25.01
2022-07-25T06:26:18.211Z,25.12
2022-07-25T06:28:47.979Z,24.99
2022-07-25T06:31:17.894Z,24.96
2022-07-25T06:33:47.754Z,25.09
2022-07-25T06:36:17.532Z,24.88
2022-07-25T06:38:47.312Z,25.03
2022-07-25T06:41:17.150Z,24.99
2022-07-25T06:43:47.223Z,25.25
2022-07-25T06:46:16.746Z,25.07
2022-07-25T06:48:46.864Z,25.07
2022-07-25T06:51:16.765Z,25.14
2022-07-25T06:53:46.535Z,24.73
2022-07-25T06:56:17.824Z,24.65
2022-07-25T06:58:47.773Z,24.86
2022-07-25T07:01:17.734Z,24.64
2022-07-25T07:03:48.492Z,24.52
2022-07-25T07:06:18.370Z,24.76
2022-07-25T07:08:48.139Z,25.21
2022-07-25T07:11:17.906Z,25.55
2022-07-25T07:13:47.673Z,25.65
2022-07-25T07:16:17.676Z,25.81
2022-07-25T07:18:49.542Z,25.79
2022-07-25T07:21:21.507Z,25.59
2022-07-25T07:23:53.497Z,25.79
2022-07-25T07:26:22.228Z,25.41
2022-07-25T07:28:53.797Z,25.23
2022-07-25T07:31:23.620Z,25.01
2022-07-25T07:33:53.423Z,25.28
2022-07-25T07:36:23.667Z,25.28
2022-07-25T07:38:53.442Z,25.38
2022-07-25T07:41:23.237Z,25.29
2022-07-25T07:43:53.316Z,25.29
2022-07-25T07:46:23.116Z,25.58
2022-07-25T07:48:53.313Z,25.58
2022-07-25T07:51:23.076Z,25.72
2022-07-25T07:54:10.527Z,26.07
2022-07-25T07:56:40.293Z,26.38
2022-07-25T07:59:10.725Z,26.13
2022-07-25T08:01:40.754Z,26.17
2022-07-25T08:04:11.663Z,26.47
2022-07-25T08:06:42.850Z,26.38
2022-07-25T08:09:12.636Z,26.19
2022-07-25T08:11:42.401Z,26.32
2022-07-25T08:14:12.342Z,26.10
2022-07-25T08:16:42.240Z,25.79
2022-07-25T08:19:11.827Z,25.90
2022-07-25T08:21:41.595Z,26.20
2022-07-25T08:24:11.481Z,26.87
2022-07-25T08:26:41.262Z,27.23
2022-07-25T08:29:19.223Z,27.54
2022-07-25T08:31:42.834Z,27.43
2022-07-25T08:34:12.495Z,27.22
2022-07-25T08:36:42.435Z,27.64
2022-07-25T08:39:11.911Z,27.87
2022-07-25T08:41:43.110Z,28.26
2022-07-25T08:44:15.050Z,28.08
2022-07-25T08:46:46.163Z,28.22
2022-07-25T08:49:16.056Z,28.40
2022-07-25T08:51:46.672Z,28.40
2022-07-25T08:54:19.269Z,28.77
2022-07-25T08:56:48.744Z,28.06
2022-07-25T08:59:18.284Z,27.62
2022-07-25T09:01:48.188Z,27.74
2022-07-25T09:04:18.441Z,27.23
2022-07-25T09:06:52.750Z,27.27
2022-07-25T09:09:33.279Z,27.21
2022-07-25T09:12:03.669Z,27.32
2022-07-25T09:14:44.425Z,28.02
2022-07-25T09:17:22.395Z,28.55
2022-07-25T09:19:54.390Z,28.56
2022-07-25T09:22:24.027Z,28.18
2022-07-25T09:24:53.807Z,28.48
2022-07-25T09:27:23.599Z,28.07
2022-07-25T09:29:53.174Z,28.41
2022-07-25T09:32:25.274Z,28.41
2022-07-25T09:34:55.050Z,28.27
2022-07-25T09:37:27.380Z,28.54
2022-07-25T09:39:57.443Z,28.49
2022-07-25T09:42:29.426Z,28.49
2022-07-25T09:45:07.533Z,28.11
2022-07-25T09:47:39.022Z,27.98
2022-07-25T09:50:09.159Z,28.44
2022-07-25T09:52:39.202Z,28.84
2022-07-25T09:55:10.864Z,28.18
2022-07-25T09:57:41.184Z,28.15
2022-07-25T10:00:13.096Z,27.66
2022-07-25T10:02:57.291Z,28.64
2022-07-25T10:05:41.166Z,29.26
2022-07-25T10:08:11.559Z,29.58
2022-07-25T10:10:43.276Z,29.93
2022-07-25T10:13:18.022Z,30.36
2022-07-25T10:15:50.835Z,30.37
2022-07-25T10:18:22.943Z,29.75
2022-07-25T10:20:56.096Z,29.44
2022-07-25T10:23:28.687Z,29.23
2022-07-25T10:26:07.162Z,29.23
2022-07-25T10:28:44.883Z,29.78
2022-07-25T10:31:29.483Z,30.02
2022-07-25T10:34:07.870Z,29.75
2022-07-25T10:36:54.168Z,29.40
2022-07-25T10:39:23.980Z,30.21
2022-07-25T10:42:02.783Z,30.26
2022-07-25T10:44:43.734Z,30.26
2022-07-25T10:47:15.443Z,30.12
2022-07-25T10:52:21.251Z,29.67
2022-07-25T10:54:56.418Z,29.90
2022-07-25T10:57:31.311Z,29.25
2022-07-25T11:00:06.409Z,28.44
2022-07-25T11:02:36.713Z,28.88
2022-07-25T11:05:08.436Z,28.88
2022-07-25T11:07:37.932Z,28.90
2022-07-25T11:10:10.438Z,28.81
2022-07-25T11:12:40.248Z,29.67
2022-07-25T11:15:13.360Z,29.51
2022-07-25T11:17:44.889Z,29.83
2022-07-25T11:20:19.541Z,29.06
2022-07-25T11:22:54.163Z,29.06
2022-07-25T11:25:24.392Z,28.28
2022-07-25T11:27:58.863Z,28.12
2022-07-25T11:30:29.576Z,28.63
2022-07-25T11:33:04.217Z,28.07
2022-07-25T11:35:34.673Z,28.03
2022-07-25T11:38:06.341Z,27.52
2022-07-25T11:40:39.285Z,27.50
2022-07-25T11:43:09.061Z,27.63
2022-07-25T11:45:39.896Z,27.54
2022-07-25T11:48:13.320Z,27.54
2022-07-25T11:50:45.534Z,27.04
2022-07-25T11:53:18.445Z,27.10
2022-07-25T11:55:48.218Z,27.24
2022-07-25T11:58:19.433Z,27.41
2022-07-25T12:00:50.534Z,27.84
2022-07-25T12:03:23.726Z,28.60
2022-07-25T12:05:53.644Z,27.61
2022-07-25T12:08:23.809Z,27.59
2022-07-25T12:10:55.556Z,27.54
2022-07-25T12:13:31.116Z,27.63
2022-07-25T12:16:01.262Z,28.19
2022-07-25T12:18:31.025Z,28.38
2022-07-25T12:21:00.793Z,27.99
2022-07-25T12:23:30.564Z,27.51
2022-07-25T12:26:00.407Z,27.61
2022-07-25T12:28:30.650Z,27.65
2022-07-25T12:31:00.535Z,28.18
2022-07-25T12:33:30.174Z,27.65
2022-07-25T12:36:06.578Z,27.55
2022-07-25T12:38:32.911Z,27.87
2022-07-25T12:41:02.693Z,27.23
2022-07-25T12:43:32.461Z,27.13
2022-07-25T12:46:02.401Z,27.11
2022-07-25T12:48:32.305Z,26.80
2022-07-25T12:51:02.219Z,26.20
2022-07-25T12:53:31.996Z,26.26
2022-07-25T12:56:01.780Z,26.03
2022-07-25T12:58:31.571Z,25.41
2022-07-25T13:01:02.278Z,25.39
2022-07-25T13:03:32.956Z,25.40
2022-07-25T13:06:02.725Z,25.02
2022-07-25T13:08:32.624Z,24.84
2022-07-25T13:11:02.401Z,24.82
2022-07-25T13:13:32.181Z,24.59
2022-07-25T13:16:02.262Z,24.56
2022-07-25T13:18:32.543Z,24.60
2022-07-25T13:21:03.485Z,24.65
2022-07-25T13:23:33.331Z,25.14
2022-07-25T13:26:03.343Z,25.74
2022-07-25T13:28:33.261Z,26.68
2022-07-25T13:31:04.728Z,26.68
2022-07-25T13:33:35.354Z,26.83
2022-07-25T13:36:07.029Z,26.39
2022-07-25T13:38:38.678Z,27.13
2022-07-25T13:41:10.055Z,26.90
2022-07-25T13:43:41.916Z,27.20
2022-07-25T13:46:12.420Z,26.70
2022-07-25T13:48:42.382Z,25.99
2022-07-25T13:51:12.210Z,25.50
2022-07-25T13:53:42.139Z,25.18
2022-07-25T13:56:14.687Z,25.53
2022-07-25T13:58:44.426Z,25.69
2022-07-25T14:01:16.014Z,25.74
2022-07-25T14:03:45.696Z,25.91
2022-07-25T14:06:15.524Z,25.70
2022-07-25T14:08:45.366Z,26.35
2022-07-25T14:11:15.211Z,27.07
2022-07-25T14:13:45.428Z,27.17
2022-07-25T14:16:16.594Z,27.32
2022-07-25T14:18:46.673Z,27.84
2022-07-25T14:21:16.447Z,27.90
2022-07-25T14:23:46.217Z,27.41
2022-07-25T14:26:15.989Z,27.29
2022-07-25T14:28:45.838Z,27.15
2022-07-25T14:31:15.807Z,26.27
2022-07-25T14:33:45.314Z,26.03
2022-07-25T14:36:15.084Z,26.10
2022-07-25T14:38:46.635Z,25.61
2022-07-25T14:41:16.791Z,25.65
2022-07-25T14:43:46.862Z,25.88
2022-07-25T14:46:16.932Z,25.74
2022-07-25T14:48:47.446Z,26.52
2022-07-25T14:51:17.738Z,27.55
2022-07-25T14:53:52.780Z,28.27
2022-07-25T14:56:19.387Z,27.80
2022-07-25T14:58:49.186Z,27.51
2022-07-25T15:01:20.815Z,27.26
2022-07-25T15:03:51.066Z,27.10
2022-07-25T15:06:24.564Z,27.55
2022-07-25T15:08:52.476Z,26.97
2022-07-25T15:11:23.281Z,27.01
2022-07-25T15:13:53.126Z,27.05
2022-07-25T15:16:23.378Z,27.24
2022-07-25T15:19:15.062Z,27.21
2022-07-25T15:21:25.063Z,26.71
2022-07-25T15:23:56.530Z,26.80
2022-07-25T15:26:26.756Z,26.84
2022-07-25T15:28:56.339Z,26.73
2022-07-25T15:31:26.517Z,26.73
2022-07-25T15:33:56.398Z,27.18
2022-07-25T15:36:29.560Z,27.34
2022-07-25T15:38:57.706Z,27.43
2022-07-25T15:41:27.472Z,27.40
2022-07-25T15:43:57.237Z,27.23
2022-07-25T15:46:28.862Z,27.04
2022-07-25T15:48:58.930Z,26.97
2022-07-25T15:51:28.691Z,27.62
2022-07-25T15:53:58.460Z,27.36
2022-07-25T15:56:28.021Z,27.11
2022-07-25T15:58:57.816Z,27.05
2022-07-25T16:01:27.760Z,26.87
2022-07-25T16:04:00.113Z,26.85
2022-07-25T16:06:30.843Z,26.85
2022-07-25T16:09:00.983Z,26.73
2022-07-25T16:11:30.461Z,26.31
2022-07-25T16:14:00.235Z,26.47
2022-07-25T16:16:29.825Z,26.65
2022-07-25T16:18:59.594Z,26.72
2022-07-25T16:21:29.441Z,26.96
2022-07-25T16:23:59.211Z,26.65
2022-07-25T16:26:29.059Z,26.93
2022-07-25T16:29:00.115Z,27.20
2022-07-25T16:31:29.827Z,27.86
2022-07-25T16:33:59.695Z,27.11
2022-07-25T16:36:29.548Z,26.58
2022-07-25T16:38:59.688Z,26.51
2022-07-25T16:41:29.481Z,25.98
2022-07-25T16:44:00.287Z,25.98
2022-07-25T16:46:30.209Z,26.09
2022-07-25T16:49:00.283Z,26.10
2022-07-25T16:51:34.119Z,26.28
2022-07-25T16:54:02.082Z,25.74
2022-07-25T16:56:32.108Z,25.45
2022-07-25T16:59:01.878Z,25.61
2022-07-25T17:01:32.362Z,25.48
2022-07-25T17:04:02.455Z,25.60
2022-07-25T17:06:32.581Z,25.33
2022-07-25T17:09:02.649Z,25.29
2022-07-25T17:11:34.355Z,25.47
2022-07-25T17:14:06.402Z,24.70
2022-07-25T17:16:36.191Z,24.70
2022-07-25T17:19:06.301Z,24.71
2022-07-25T17:21:36.240Z,24.85
2022-07-25T17:24:08.443Z,24.53
2022-07-25T17:26:38.347Z,24.53
2022-07-25T17:29:09.433Z,24.43
2022-07-25T17:31:39.500Z,24.35
2022-07-25T17:34:10.089Z,24.28
2022-07-25T17:36:40.548Z,24.46
2022-07-25T17:39:10.996Z,24.46
2022-07-25T17:41:41.000Z,24.12
2022-07-25T17:44:12.319Z,24.01
2022-07-25T17:46:42.513Z,24.22
2022-07-25T17:49:12.689Z,23.92
2022-07-25T17:51:42.549Z,23.88
2022-07-25T17:54:12.276Z,24.10
2022-07-25T17:56:42.477Z,23.93
2022-07-25T17:59:12.424Z,24.04
2022-07-25T18:01:42.242Z,23.80
2022-07-25T18:04:12.056Z,23.98
2022-07-25T18:06:41.872Z,23.70
2022-07-25T18:09:11.720Z,23.60
2022-07-25T18:11:41.194Z,23.68
2022-07-25T18:14:11.610Z,23.62
2022-07-25T18:16:41.352Z,23.57
2022-07-25T18:19:11.200Z,23.57
2022-07-25T18:21:41.025Z,23.59
2022-07-25T18:24:11.878Z,23.33
2022-07-25T18:26:42.465Z,23.33
2022-07-25T18:29:12.257Z,23.30
2022-07-25T18:31:42.129Z,23.43
2022-07-25T18:34:12.052Z,23.08
2022-07-25T18:36:42.848Z,23.08
2022-07-25T18:39:12.621Z,23.20
2022-07-25T18:41:42.566Z,22.96
2022-07-25T18:44:12.250Z,22.91
2022-07-25T18:46:45.897Z,22.79
2022-07-25T18:49:15.826Z,22.90
2022-07-25T18:51:46.095Z,23.07
2022-07-25T18:54:15.940Z,23.04
2022-07-25T18:56:45.791Z,22.84
2022-07-25T18:59:17.408Z,22.86
2022-07-25T19:01:47.245Z,23.00
2022-07-25T19:04:17.444Z,22.90
2022-07-25T19:06:47.367Z,22.90
2022-07-25T19:09:17.931Z,22.97
2022-07-25T19:11:48.173Z,22.64
2022-07-25T19:14:17.954Z,22.60
2022-07-25T19:16:47.774Z,22.60
2022-07-25T19:19:17.649Z,22.49
2022-07-25T19:21:47.434Z,22.60
2022-07-25T19:24:17.140Z,22.82
2022-07-25T19:26:48.073Z,22.34
2022-07-25T19:29:18.556Z,22.28
2022-07-25T19:31:48.357Z,22.28
2022-07-25T19:34:18.125Z,22.40
2022-07-25T19:36:47.903Z,22.44
2022-07-25T19:39:17.667Z,22.44
2022-07-25T19:41:47.525Z,22.33
2022-07-25T19:44:17.631Z,22.39
2022-07-25T19:46:49.457Z,22.35
2022-07-25T19:49:19.303Z,22.37
2022-07-25T19:51:49.152Z,22.31
2022-07-25T19:54:19.024Z,22.22
2022-07-25T19:56:48.804Z,22.29
2022-07-25T19:59:18.586Z,22.37
2022-07-25T20:01:50.195Z,22.31
2022-07-25T20:04:19.969Z,22.32
2022-07-25T20:06:52.137Z,22.37
2022-07-25T20:09:22.453Z,22.27
2022-07-25T20:11:52.424Z,22.48
2022-07-25T20:14:21.895Z,22.51
2022-07-25T20:16:51.844Z,22.58
2022-07-25T20:19:21.755Z,22.23
2022-07-25T20:21:52.110Z,22.28
2022-07-25T20:24:22.065Z,22.10
2022-07-25T20:26:51.892Z,22.14
2022-07-25T20:29:21.906Z,22.16
2022-07-25T20:31:53.390Z,21.92
2022-07-25T20:34:23.650Z,21.78
2022-07-25T20:36:53.791Z,21.85
2022-07-25T20:39:23.626Z,21.85
2022-07-25T20:41:53.561Z,22.03
2022-07-25T20:44:23.109Z,21.95
2022-07-25T20:46:52.880Z,21.67
2022-07-25T20:49:22.749Z,21.89
2022-07-25T20:51:54.843Z,22.15
2022-07-25T20:54:24.831Z,22.08
2022-07-25T20:56:54.685Z,21.79
2022-07-25T20:59:24.451Z,21.87
2022-07-25T21:01:54.286Z,21.75
2022-07-25T21:04:24.484Z,21.67
2022-07-25T21:06:56.780Z,21.91
2022-07-25T21:09:30.940Z,22.05
2022-07-25T21:11:58.352Z,22.02
2022-07-25T21:14:29.047Z,21.81
2022-07-25T21:16:58.883Z,21.81
2022-07-25T21:19:28.684Z,21.72
2022-07-25T21:21:58.460Z,21.91
2022-07-25T21:24:28.120Z,21.72
2022-07-25T21:26:57.857Z,21.50
2022-07-25T21:29:27.940Z,21.66
2022-07-25T21:31:57.894Z,21.41
2022-07-25T21:34:27.692Z,21.24
2022-07-25T21:36:57.474Z,21.24
2022-07-25T21:39:27.720Z,21.35
2022-07-25T21:41:57.631Z,21.30
2022-07-25T21:44:27.659Z,21.46
2022-07-25T21:46:57.511Z,21.24
2022-07-25T21:49:45.188Z,21.24
2022-07-25T21:52:15.538Z,21.17
2022-07-25T21:54:46.249Z,21.22
2022-07-25T21:57:16.355Z,21.22
2022-07-25T21:59:46.763Z,21.21
2022-07-25T22:02:16.356Z,21.21
2022-07-25T22:04:46.262Z,21.39
2022-07-25T22:07:16.119Z,21.28
2022-07-25T22:09:46.137Z,21.25
2022-07-25T22:12:16.262Z,21.38
2022-07-25T22:14:46.038Z,21.20
2022-07-25T22:17:15.877Z,21.07
2022-07-25T22:19:45.925Z,21.00
2022-07-25T22:22:16.015Z,21.00
2022-07-25T22:24:46.704Z,21.06
2022-07-25T22:27:16.792Z,21.07
2022-07-25T22:29:46.642Z,20.76
2022-07-25T22:32:16.476Z,20.87
2022-07-25T22:34:46.251Z,21.07
2022-07-25T22:37:16.934Z,21.16
2022-07-25T22:39:46.687Z,21.00
2022-07-25T22:42:16.423Z,21.05
2022-07-25T22:44:46.240Z,21.08
2022-07-25T22:47:16.238Z,20.85
2022-07-25T22:49:46.004Z,20.85
2022-07-25T22:52:15.558Z,20.86
2022-07-25T22:54:45.623Z,20.76
2022-07-25T22:57:15.421Z,20.73
2022-07-25T22:59:46.832Z,20.83
2022-07-25T23:02:16.541Z,20.66
2022-07-25T23:04:46.414Z,20.70
2022-07-25T23:07:16.238Z,20.68
2022-07-25T23:09:46.013Z,20.64
2022-07-25T23:12:15.567Z,20.65
2022-07-25T23:14:45.611Z,20.63
2022-07-25T23:17:18.324Z,20.64
2022-07-25T23:19:53.138Z,20.65
2022-07-25T23:22:25.369Z,20.55
2022-07-25T23:24:56.076Z,20.53
2022-07-25T23:27:26.784Z,20.48
2022-07-25T23:29:56.565Z,20.69
2022-07-25T23:32:26.320Z,20.52
2022-07-25T23:34:56.124Z,20.53
2022-07-25T23:37:25.971Z,20.30
2022-07-25T23:39:56.111Z,20.30
2022-07-25T23:42:25.655Z,20.55
2022-07-25T23:44:55.152Z,20.33
2022-07-25T23:47:36.906Z,20.34
2022-07-25T23:49:56.782Z,20.34
2022-07-25T23:52:26.448Z,20.39
2022-07-25T23:54:56.247Z,20.25
2022-07-25T23:57:26.085Z,20.14
2022-07-25T23:59:55.861Z,20.22
